sensor_id;sensor_type;location;lat;lon;timestamp;pressure;altitude;pressure_sealevel;temperature;humidity
6343;BME280;3204;42.698;23.298;2023-02-28T00:00:13;95346.81;;;8.88;99.44
6343;BME280;3204;42.698;23.298;2023-02-28T00:02:43;95352.09;;;8.98;99.54
6343;BME280;3204;42.698;23.298;2023-02-28T00:05:10;95355.56;;;9.04;98.95
6343;BME280;3204;42.698;23.298;2023-02-28T00:07:36;95360.38;;;9.07;98.83
6343;BME280;3204;42.698;23.298;2023-02-28T00:10:03;95360.66;;;9.05;98.67
6343;BME280;3204;42.698;23.298;2023-02-28T00:12:29;95371.41;;;9.15;98.81
6343;BME280;3204;42.698;23.298;2023-02-28T00:14:55;95365.22;;;9.10;98.76
6343;BME280;3204;42.698;23.298;2023-02-28T00:17:20;95361.88;;;9.18;98.04
6343;BME280;3204;42.698;23.298;2023-02-28T00:19:49;95374.94;;;9.11;97.16
6343;BME280;3204;42.698;23.298;2023-02-28T00:22:19;95376.22;;;8.95;97.06
6343;BME280;3204;42.698;23.298;2023-02-28T00:24:46;95385.00;;;9.05;97.65
6343;BME280;3204;42.698;23.298;2023-02-28T00:27:12;95366.03;;;8.87;97.49
6343;BME280;3204;42.698;23.298;2023-02-28T00:29:38;95382.38;;;8.77;98.46
6343;BME280;3204;42.698;23.298;2023-02-28T00:32:04;95388.06;;;8.75;97.94
6343;BME280;3204;42.698;23.298;2023-02-28T00:34:30;95379.94;;;8.75;98.45
6343;BME280;3204;42.698;23.298;2023-02-28T00:36:55;95383.59;;;8.66;98.25
6343;BME280;3204;42.698;23.298;2023-02-28T00:39:21;95377.63;;;8.64;98.47
6343;BME280;3204;42.698;23.298;2023-02-28T00:41:46;95385.28;;;8.57;99.82
6343;BME280;3204;42.698;23.298;2023-02-28T00:44:12;95394.34;;;8.42;100.00
6343;BME280;3204;42.698;23.298;2023-02-28T00:46:37;95383.63;;;7.94;100.00
6343;BME280;3204;42.698;23.298;2023-02-28T00:49:03;95383.47;;;7.80;100.00
6343;BME280;3204;42.698;23.298;2023-02-28T00:51:28;95374.06;;;7.73;100.00
6343;BME280;3204;42.698;23.298;2023-02-28T00:53:54;95374.59;;;7.75;100.00
6343;BME280;3204;42.698;23.298;2023-02-28T00:56:20;95367.63;;;7.69;100.00
6343;BME280;3204;42.698;23.298;2023-02-28T00:58:45;95374.59;;;7.75;100.00
6343;BME280;3204;42.698;23.298;2023-02-28T01:01:10;95381.81;;;7.84;100.00
6343;BME280;3204;42.698;23.298;2023-02-28T01:03:36;95361.63;;;7.77;100.00
6343;BME280;3204;42.698;23.298;2023-02-28T01:06:02;95377.28;;;7.75;100.00
6343;BME280;3204;42.698;23.298;2023-02-28T01:08:27;95368.75;;;7.63;100.00
6343;BME280;3204;42.698;23.298;2023-02-28T01:10:53;95373.94;;;7.54;100.00
6343;BME280;3204;42.698;23.298;2023-02-28T01:13:19;95373.22;;;7.39;100.00
6343;BME280;3204;42.698;23.298;2023-02-28T01:15:54;95379.19;;;7.31;100.00
6343;BME280;3204;42.698;23.298;2023-02-28T01:18:21;95375.41;;;7.27;100.00
6343;BME280;3204;42.698;23.298;2023-02-28T01:20:47;95366.47;;;7.36;100.00
6343;BME280;3204;42.698;23.298;2023-02-28T01:23:13;95377.56;;;7.30;100.00
6343;BME280;3204;42.698;23.298;2023-02-28T01:25:38;95371.25;;;7.44;100.00
6343;BME280;3204;42.698;23.298;2023-02-28T01:28:05;95366.44;;;7.41;100.00
6343;BME280;3204;42.698;23.298;2023-02-28T01:30:31;95377.44;;;7.50;100.00
6343;BME280;3204;42.698;23.298;2023-02-28T01:32:57;95367.16;;;7.57;100.00
6343;BME280;3204;42.698;23.298;2023-02-28T01:35:23;95368.28;;;7.46;100.00
6343;BME280;3204;42.698;23.298;2023-02-28T01:37:48;95366.09;;;7.53;100.00
6343;BME280;3204;42.698;23.298;2023-02-28T01:40:14;95372.59;;;7.47;100.00
6343;BME280;3204;42.698;23.298;2023-02-28T01:42:39;95363.88;;;7.60;100.00
6343;BME280;3204;42.698;23.298;2023-02-28T01:45:16;95377.16;;;7.56;100.00
6343;BME280;3204;42.698;23.298;2023-02-28T01:47:44;95372.06;;;7.50;100.00
6343;BME280;3204;42.698;23.298;2023-02-28T01:50:16;95371.81;;;7.46;100.00
6343;BME280;3204;42.698;23.298;2023-02-28T01:52:43;95375.00;;;7.53;100.00
6343;BME280;3204;42.698;23.298;2023-02-28T01:55:12;95373.63;;;7.56;100.00
6343;BME280;3204;42.698;23.298;2023-02-28T01:57:41;95377.91;;;7.67;100.00
6343;BME280;3204;42.698;23.298;2023-02-28T02:00:10;95378.41;;;7.69;99.20
6343;BME280;3204;42.698;23.298;2023-02-28T02:02:38;95378.69;;;7.67;98.63
6343;BME280;3204;42.698;23.298;2023-02-28T02:05:08;95382.00;;;7.59;99.79
6343;BME280;3204;42.698;23.298;2023-02-28T02:07:39;95369.53;;;7.68;99.23
6343;BME280;3204;42.698;23.298;2023-02-28T02:10:21;95385.72;;;7.68;99.17
6343;BME280;3204;42.698;23.298;2023-02-28T02:27:05;95365.56;;;7.51;100.00
6343;BME280;3204;42.698;23.298;2023-02-28T02:35:00;95374.09;;;7.68;99.24
6343;BME280;3204;42.698;23.298;2023-02-28T02:37:49;95371.94;;;7.65;99.59
6343;BME280;3204;42.698;23.298;2023-02-28T02:40:24;95368.50;;;7.59;99.78
6343;BME280;3204;42.698;23.298;2023-02-28T02:42:55;95378.44;;;7.64;99.92
6343;BME280;3204;42.698;23.298;2023-02-28T02:45:44;95378.63;;;7.77;100.00
6343;BME280;3204;42.698;23.298;2023-02-28T02:48:13;95390.75;;;7.80;99.11
6343;BME280;3204;42.698;23.298;2023-02-28T02:50:46;95386.19;;;7.75;99.49
6343;BME280;3204;42.698;23.298;2023-02-28T02:53:17;95379.91;;;7.85;98.78
6343;BME280;3204;42.698;23.298;2023-02-28T02:55:46;95376.63;;;7.93;98.51
6343;BME280;3204;42.698;23.298;2023-02-28T02:58:19;95380.44;;;7.87;98.53
6343;BME280;3204;42.698;23.298;2023-02-28T03:00:50;95373.97;;;7.88;98.64
6343;BME280;3204;42.698;23.298;2023-02-28T03:03:19;95385.97;;;8.05;96.93
6343;BME280;3204;42.698;23.298;2023-02-28T03:05:54;95386.19;;;7.75;97.75
6343;BME280;3204;42.698;23.298;2023-02-28T03:08:20;95387.25;;;7.79;98.94
6343;BME280;3204;42.698;23.298;2023-02-28T03:10:48;95407.41;;;7.92;97.71
6343;BME280;3204;42.698;23.298;2023-02-28T03:21:42;95416.75;;;7.71;98.28
6343;BME280;3204;42.698;23.298;2023-02-28T03:24:19;95421.13;;;7.62;98.90
6343;BME280;3204;42.698;23.298;2023-02-28T03:26:58;95418.56;;;7.80;98.34
6343;BME280;3204;42.698;23.298;2023-02-28T03:29:41;95415.63;;;7.77;98.31
6343;BME280;3204;42.698;23.298;2023-02-28T03:34:46;95420.22;;;7.76;98.40
6343;BME280;3204;42.698;23.298;2023-02-28T03:37:20;95429.72;;;7.64;98.74
6343;BME280;3204;42.698;23.298;2023-02-28T03:39:50;95422.19;;;7.61;99.20
6343;BME280;3204;42.698;23.298;2023-02-28T03:42:21;95433.56;;;7.58;99.76
6343;BME280;3204;42.698;23.298;2023-02-28T03:44:53;95432.75;;;7.52;100.00
6343;BME280;3204;42.698;23.298;2023-02-28T03:47:31;95428.25;;;7.38;100.00
6343;BME280;3204;42.698;23.298;2023-02-28T03:50:11;95432.88;;;7.32;100.00
6343;BME280;3204;42.698;23.298;2023-02-28T03:52:50;95442.81;;;7.37;100.00
6343;BME280;3204;42.698;23.298;2023-02-28T03:55:18;95448.16;;;7.47;100.00
6343;BME280;3204;42.698;23.298;2023-02-28T03:57:59;95437.13;;;7.43;100.00
6343;BME280;3204;42.698;23.298;2023-02-28T04:00:35;95444.69;;;7.41;100.00
6343;BME280;3204;42.698;23.298;2023-02-28T04:03:01;95446.59;;;7.36;100.00
6343;BME280;3204;42.698;23.298;2023-02-28T04:05:27;95438.44;;;7.46;100.00
6343;BME280;3204;42.698;23.298;2023-02-28T04:07:53;95434.44;;;7.38;100.00
6343;BME280;3204;42.698;23.298;2023-02-28T04:10:19;95435.84;;;7.26;100.00
6343;BME280;3204;42.698;23.298;2023-02-28T04:12:45;95440.94;;;7.37;100.00
6343;BME280;3204;42.698;23.298;2023-02-28T04:15:10;95440.41;;;7.35;100.00
6343;BME280;3204;42.698;23.298;2023-02-28T04:17:36;95438.00;;;7.29;100.00
6343;BME280;3204;42.698;23.298;2023-02-28T04:20:03;95432.34;;;7.20;100.00
6343;BME280;3204;42.698;23.298;2023-02-28T04:22:34;95435.94;;;7.06;100.00
6343;BME280;3204;42.698;23.298;2023-02-28T04:24:59;95432.16;;;7.07;100.00
6343;BME280;3204;42.698;23.298;2023-02-28T04:27:25;95437.25;;;7.13;100.00
6343;BME280;3204;42.698;23.298;2023-02-28T04:29:50;95434.81;;;7.17;100.00
6343;BME280;3204;42.698;23.298;2023-02-28T04:32:16;95438.06;;;7.04;100.00
6343;BME280;3204;42.698;23.298;2023-02-28T04:34:41;95439.75;;;7.00;100.00
6343;BME280;3204;42.698;23.298;2023-02-28T04:37:07;95440.25;;;7.07;100.00
6343;BME280;3204;42.698;23.298;2023-02-28T04:39:36;95438.94;;;6.94;100.00
6343;BME280;3204;42.698;23.298;2023-02-28T04:42:02;95442.69;;;6.98;100.00
6343;BME280;3204;42.698;23.298;2023-02-28T04:44:27;95433.81;;;6.93;100.00
6343;BME280;3204;42.698;23.298;2023-02-28T04:46:53;95444.03;;;7.01;100.00
6343;BME280;3204;42.698;23.298;2023-02-28T04:49:18;95453.47;;;6.98;100.00
6343;BME280;3204;42.698;23.298;2023-02-28T04:51:44;95463.19;;;6.99;100.00
6343;BME280;3204;42.698;23.298;2023-02-28T04:54:09;95466.13;;;7.03;100.00
6343;BME280;3204;42.698;23.298;2023-02-28T04:56:35;95468.63;;;6.84;100.00
6343;BME280;3204;42.698;23.298;2023-02-28T04:59:00;95464.31;;;6.58;100.00
6343;BME280;3204;42.698;23.298;2023-02-28T05:01:30;95467.31;;;6.62;100.00
6343;BME280;3204;42.698;23.298;2023-02-28T05:03:59;95468.88;;;6.83;100.00
6343;BME280;3204;42.698;23.298;2023-02-28T05:06:26;95473.72;;;6.91;100.00
6343;BME280;3204;42.698;23.298;2023-02-28T05:08:52;95465.91;;;6.94;100.00
6343;BME280;3204;42.698;23.298;2023-02-28T05:11:26;95458.06;;;6.98;100.00
6343;BME280;3204;42.698;23.298;2023-02-28T05:13:54;95459.41;;;7.00;100.00
6343;BME280;3204;42.698;23.298;2023-02-28T05:16:20;95459.41;;;7.00;100.00
6343;BME280;3204;42.698;23.298;2023-02-28T05:18:46;95464.53;;;6.97;100.00
6343;BME280;3204;42.698;23.298;2023-02-28T05:21:24;95461.03;;;6.91;100.00
6343;BME280;3204;42.698;23.298;2023-02-28T05:23:51;95465.88;;;6.99;100.00
6343;BME280;3204;42.698;23.298;2023-02-28T05:26:17;95472.88;;;7.05;100.00
6343;BME280;3204;42.698;23.298;2023-02-28T05:28:43;95485.81;;;7.13;100.00
6343;BME280;3204;42.698;23.298;2023-02-28T05:31:12;95482.31;;;7.03;100.00
6343;BME280;3204;42.698;23.298;2023-02-28T05:33:38;95491.75;;;7.05;100.00
6343;BME280;3204;42.698;23.298;2023-02-28T05:36:04;95489.03;;;7.05;100.00
6343;BME280;3204;42.698;23.298;2023-02-28T05:38:29;95495.28;;;6.96;100.00
6343;BME280;3204;42.698;23.298;2023-02-28T05:40:55;95493.09;;;7.08;100.00
6343;BME280;3204;42.698;23.298;2023-02-28T05:43:21;95490.94;;;7.15;100.00
6343;BME280;3204;42.698;23.298;2023-02-28T05:45:47;95496.31;;;7.20;100.00
6343;BME280;3204;42.698;23.298;2023-02-28T05:48:12;95493.91;;;7.13;100.00
6343;BME280;3204;42.698;23.298;2023-02-28T05:50:37;95496.81;;;7.27;100.00
6343;BME280;3204;42.698;23.298;2023-02-28T05:53:03;95496.53;;;7.33;100.00
6343;BME280;3204;42.698;23.298;2023-02-28T05:55:29;95498.41;;;7.38;100.00
6343;BME280;3204;42.698;23.298;2023-02-28T05:57:54;95506.50;;;7.43;100.00
6343;BME280;3204;42.698;23.298;2023-02-28T06:00:21;95504.34;;;7.40;100.00
6343;BME280;3204;42.698;23.298;2023-02-28T06:02:47;95502.16;;;7.37;100.00
6343;BME280;3204;42.698;23.298;2023-02-28T06:05:17;95498.69;;;7.36;100.00
6343;BME280;3204;42.698;23.298;2023-02-28T06:07:43;95504.03;;;7.51;100.00
6343;BME280;3204;42.698;23.298;2023-02-28T06:10:10;95499.41;;;7.57;100.00
6343;BME280;3204;42.698;23.298;2023-02-28T06:12:36;95498.28;;;7.68;100.00
6343;BME280;3204;42.698;23.298;2023-02-28T06:15:02;95504.25;;;7.60;100.00
6343;BME280;3204;42.698;23.298;2023-02-28T06:17:28;95504.25;;;7.60;100.00
6343;BME280;3204;42.698;23.298;2023-02-28T06:19:53;95499.97;;;7.54;100.00
6343;BME280;3204;42.698;23.298;2023-02-28T06:22:19;95504.84;;;7.52;100.00
6343;BME280;3204;42.698;23.298;2023-02-28T06:24:44;95497.56;;;7.47;100.00
6343;BME280;3204;42.698;23.298;2023-02-28T06:27:10;95506.75;;;7.46;100.00
6343;BME280;3204;42.698;23.298;2023-02-28T06:29:36;95502.13;;;7.47;100.00
6343;BME280;3204;42.698;23.298;2023-02-28T06:32:01;95508.34;;;7.47;100.00
6343;BME280;3204;42.698;23.298;2023-02-28T06:34:27;95512.94;;;7.47;100.00
6343;BME280;3204;42.698;23.298;2023-02-28T06:36:53;95520.50;;;7.45;100.00
6343;BME280;3204;42.698;23.298;2023-02-28T06:39:19;95521.84;;;7.47;100.00
6343;BME280;3204;42.698;23.298;2023-02-28T06:41:44;95524.28;;;7.44;100.00
6343;BME280;3204;42.698;23.298;2023-02-28T06:44:15;95523.72;;;7.47;100.00
6343;BME280;3204;42.698;23.298;2023-02-28T06:46:43;95521.31;;;7.45;100.00
6343;BME280;3204;42.698;23.298;2023-02-28T06:49:09;95521.03;;;7.52;100.00
6343;BME280;3204;42.698;23.298;2023-02-28T06:51:39;95522.66;;;7.48;100.00
6343;BME280;3204;42.698;23.298;2023-02-28T06:54:05;95523.75;;;7.42;100.00
6343;BME280;3204;42.698;23.298;2023-02-28T06:56:34;95529.69;;;7.44;100.00
6343;BME280;3204;42.698;23.298;2023-02-28T06:58:59;95528.28;;;7.56;100.00
6343;BME280;3204;42.698;23.298;2023-02-28T07:01:25;95533.41;;;7.58;100.00
6343;BME280;3204;42.698;23.298;2023-02-28T07:03:51;95534.50;;;7.57;100.00
6343;BME280;3204;42.698;23.298;2023-02-28T07:06:23;95530.16;;;7.61;100.00
6343;BME280;3204;42.698;23.298;2023-02-28T07:08:50;95527.97;;;7.73;100.00
6343;BME280;3204;42.698;23.298;2023-02-28T07:11:15;95531.88;;;7.95;100.00
6343;BME280;3204;42.698;23.298;2023-02-28T07:13:41;95535.88;;;8.08;100.00
6343;BME280;3204;42.698;23.298;2023-02-28T07:16:09;95527.72;;;8.23;100.00
6343;BME280;3204;42.698;23.298;2023-02-28T07:18:36;95525.56;;;8.25;100.00
6343;BME280;3204;42.698;23.298;2023-02-28T07:21:03;95527.47;;;8.14;99.56
6343;BME280;3204;42.698;23.298;2023-02-28T07:23:28;95522.97;;;8.00;100.00
6343;BME280;3204;42.698;23.298;2023-02-28T07:25:54;95540.53;;;7.97;100.00
6343;BME280;3204;42.698;23.298;2023-02-28T07:28:20;95540.81;;;7.96;100.00
6343;BME280;3204;42.698;23.298;2023-02-28T07:30:46;95532.72;;;7.96;100.00
6343;BME280;3204;42.698;23.298;2023-02-28T07:33:11;95528.84;;;8.07;100.00
6343;BME280;3204;42.698;23.298;2023-02-28T07:35:37;95539.91;;;8.10;100.00
6343;BME280;3204;42.698;23.298;2023-02-28T07:38:03;95528.00;;;8.16;100.00
6343;BME280;3204;42.698;23.298;2023-02-28T07:40:30;95530.41;;;8.28;100.00
6343;BME280;3204;42.698;23.298;2023-02-28T07:42:56;95536.31;;;8.30;100.00
6343;BME280;3204;42.698;23.298;2023-02-28T07:45:21;95536.81;;;8.37;100.00
6343;BME280;3204;42.698;23.298;2023-02-28T07:47:47;95537.59;;;8.42;99.36
6343;BME280;3204;42.698;23.298;2023-02-28T07:50:14;95536.19;;;8.50;99.28
6343;BME280;3204;42.698;23.298;2023-02-28T07:52:40;95537.75;;;8.56;98.58
6343;BME280;3204;42.698;23.298;2023-02-28T07:55:08;95534.19;;;8.65;98.67
6343;BME280;3204;42.698;23.298;2023-02-28T07:57:33;95526.63;;;8.62;98.28
6343;BME280;3204;42.698;23.298;2023-02-28T07:59:59;95534.59;;;8.82;98.37
6343;BME280;3204;42.698;23.298;2023-02-28T08:02:24;95530.44;;;8.95;97.01
6343;BME280;3204;42.698;23.298;2023-02-28T08:04:50;95527.94;;;8.98;97.56
6343;BME280;3204;42.698;23.298;2023-02-28T08:07:16;95528.28;;;9.20;96.04
6343;BME280;3204;42.698;23.298;2023-02-28T08:09:44;95536.25;;;9.35;95.49
6343;BME280;3204;42.698;23.298;2023-02-28T08:12:10;95541.28;;;9.47;95.33
6343;BME280;3204;42.698;23.298;2023-02-28T08:14:36;95533.59;;;9.54;94.42
6343;BME280;3204;42.698;23.298;2023-02-28T08:17:02;95533.03;;;9.57;94.05
6343;BME280;3204;42.698;23.298;2023-02-28T08:19:28;95546.31;;;9.30;95.03
6343;BME280;3204;42.698;23.298;2023-02-28T08:21:54;95536.88;;;9.51;94.77
6343;BME280;3204;42.698;23.298;2023-02-28T08:24:20;95545.09;;;9.41;95.00
6343;BME280;3204;42.698;23.298;2023-02-28T08:26:45;95545.06;;;9.46;94.65
6343;BME280;3204;42.698;23.298;2023-02-28T08:29:11;95552.34;;;9.50;95.29
6343;BME280;3204;42.698;23.298;2023-02-28T08:31:37;95552.44;;;9.40;94.49
6343;BME280;3204;42.698;23.298;2023-02-28T08:34:11;95547.69;;;9.56;93.97
6343;BME280;3204;42.698;23.298;2023-02-28T08:36:37;95542.59;;;9.49;94.54
6343;BME280;3204;42.698;23.298;2023-02-28T08:39:03;95548.69;;;9.60;95.90
6343;BME280;3204;42.698;23.298;2023-02-28T08:41:29;95538.91;;;9.64;94.79
6343;BME280;3204;42.698;23.298;2023-02-28T08:43:54;95547.50;;;9.71;94.75
6343;BME280;3204;42.698;23.298;2023-02-28T08:46:20;95548.06;;;9.68;94.81
6343;BME280;3204;42.698;23.298;2023-02-28T08:48:46;95545.75;;;9.56;95.93
6343;BME280;3204;42.698;23.298;2023-02-28T08:51:14;95545.66;;;9.43;96.80
6343;BME280;3204;42.698;23.298;2023-02-28T08:53:41;95541.22;;;9.52;96.42
6343;BME280;3204;42.698;23.298;2023-02-28T08:56:11;95540.19;;;9.48;97.19
6343;BME280;3204;42.698;23.298;2023-02-28T08:58:37;95544.66;;;9.57;97.43
6343;BME280;3204;42.698;23.298;2023-02-28T09:01:13;95548.06;;;9.68;97.03
6343;BME280;3204;42.698;23.298;2023-02-28T09:03:40;95551.00;;;9.71;96.04
6343;BME280;3204;42.698;23.298;2023-02-28T09:06:09;95546.84;;;9.79;95.53
6343;BME280;3204;42.698;23.298;2023-02-28T09:08:35;95550.44;;;9.74;95.90
6343;BME280;3204;42.698;23.298;2023-02-28T09:11:01;95541.97;;;9.81;95.71
6343;BME280;3204;42.698;23.298;2023-02-28T09:13:27;95549.50;;;9.84;95.83
6343;BME280;3204;42.698;23.298;2023-02-28T09:15:53;95553.72;;;9.95;94.85
6343;BME280;3204;42.698;23.298;2023-02-28T09:18:19;95540.16;;;9.95;95.04
6343;BME280;3204;42.698;23.298;2023-02-28T09:20:45;95536.56;;;9.99;94.58
6343;BME280;3204;42.698;23.298;2023-02-28T09:23:12;95537.38;;;10.05;93.20
6343;BME280;3204;42.698;23.298;2023-02-28T09:25:38;95536.78;;;10.08;93.52
6343;BME280;3204;42.698;23.298;2023-02-28T09:28:09;95545.06;;;10.16;92.63
6343;BME280;3204;42.698;23.298;2023-02-28T09:30:36;95540.56;;;10.07;92.85
6343;BME280;3204;42.698;23.298;2023-02-28T09:33:02;95536.19;;;10.11;93.26
6343;BME280;3204;42.698;23.298;2023-02-28T09:35:28;95544.84;;;10.13;92.99
6343;BME280;3204;42.698;23.298;2023-02-28T09:37:56;95533.13;;;10.17;93.37
6343;BME280;3204;42.698;23.298;2023-02-28T09:40:24;95534.59;;;10.28;93.00
6343;BME280;3204;42.698;23.298;2023-02-28T09:42:52;95536.78;;;10.45;93.19
6343;BME280;3204;42.698;23.298;2023-02-28T09:45:41;95535.72;;;10.46;91.97
6343;BME280;3204;42.698;23.298;2023-02-28T09:48:15;95532.03;;;10.55;92.21
6343;BME280;3204;42.698;23.298;2023-02-28T09:50:46;95535.56;;;10.56;92.15
6343;BME280;3204;42.698;23.298;2023-02-28T09:53:24;95534.78;;;10.69;91.88
6343;BME280;3204;42.698;23.298;2023-02-28T09:55:55;95527.31;;;10.79;91.32
6343;BME280;3204;42.698;23.298;2023-02-28T09:58:30;95527.09;;;10.76;91.14
6343;BME280;3204;42.698;23.298;2023-02-28T10:06:33;95522.69;;;11.12;90.08
6343;BME280;3204;42.698;23.298;2023-02-28T10:09:33;95521.22;;;11.19;90.30
6343;BME280;3204;42.698;23.298;2023-02-28T10:12:03;95508.88;;;11.27;89.78
6343;BME280;3204;42.698;23.298;2023-02-28T10:14:32;95507.75;;;11.41;89.73
6343;BME280;3204;42.698;23.298;2023-02-28T10:17:04;95498.63;;;11.51;88.61
6343;BME280;3204;42.698;23.298;2023-02-28T10:22:34;95505.91;;;11.69;87.86
6343;BME280;3204;42.698;23.298;2023-02-28T10:25:17;95500.38;;;11.74;86.69
6343;BME280;3204;42.698;23.298;2023-02-28T10:27:44;95502.78;;;11.62;85.81
6343;BME280;3204;42.698;23.298;2023-02-28T10:30:11;95493.22;;;11.64;85.40
6343;BME280;3204;42.698;23.298;2023-02-28T10:32:38;95479.16;;;11.62;86.02
6343;BME280;3204;42.698;23.298;2023-02-28T10:37:41;95484.97;;;11.69;84.43
6343;BME280;3204;42.698;23.298;2023-02-28T10:40:34;95479.53;;;11.96;84.83
6343;BME280;3204;42.698;23.298;2023-02-28T10:43:05;95476.88;;;12.05;83.71
6343;BME280;3204;42.698;23.298;2023-02-28T10:45:35;95460.97;;;12.12;82.73
6343;BME280;3204;42.698;23.298;2023-02-28T10:58:48;95465.00;;;12.50;80.56
6343;BME280;3204;42.698;23.298;2023-02-28T11:01:20;95447.13;;;12.57;80.52
6343;BME280;3204;42.698;23.298;2023-02-28T11:03:46;95451.72;;;12.35;79.92
6343;BME280;3204;42.698;23.298;2023-02-28T11:06:20;95450.53;;;12.27;81.43
6343;BME280;3204;42.698;23.298;2023-02-28T11:08:56;95442.97;;;12.38;80.48
6343;BME280;3204;42.698;23.298;2023-02-28T11:11:25;95433.25;;;12.45;80.45
6343;BME280;3204;42.698;23.298;2023-02-28T11:13:53;95424.84;;;12.55;80.39
6343;BME280;3204;42.698;23.298;2023-02-28T11:16:20;95424.59;;;12.65;79.93
6343;BME280;3204;42.698;23.298;2023-02-28T11:18:51;95430.22;;;12.91;79.34
6343;BME280;3204;42.698;23.298;2023-02-28T11:21:27;95426.63;;;13.04;78.63
6343;BME280;3204;42.698;23.298;2023-02-28T11:24:06;95432.25;;;13.07;78.81
6343;BME280;3204;42.698;23.298;2023-02-28T11:26:43;95433.09;;;12.94;79.06
6343;BME280;3204;42.698;23.298;2023-02-28T11:29:22;95424.63;;;12.96;78.35
6343;BME280;3204;42.698;23.298;2023-02-28T11:32:26;95424.94;;;12.94;79.25
6343;BME280;3204;42.698;23.298;2023-02-28T11:35:17;95413.63;;;13.31;78.12
6343;BME280;3204;42.698;23.298;2023-02-28T11:37:47;95419.88;;;13.23;76.81
6343;BME280;3204;42.698;23.298;2023-02-28T11:40:19;95421.53;;;13.11;76.34
6343;BME280;3204;42.698;23.298;2023-02-28T11:45:49;95416.38;;;12.79;78.00
6343;BME280;3204;42.698;23.298;2023-02-28T11:48:21;95428.31;;;12.91;77.00
6343;BME280;3204;42.698;23.298;2023-02-28T11:51:14;95421.75;;;12.70;76.86
6343;BME280;3204;42.698;23.298;2023-02-28T11:53:50;95412.72;;;12.83;77.11
6343;BME280;3204;42.698;23.298;2023-02-28T11:59:57;95411.63;;;12.62;77.98
6343;BME280;3204;42.698;23.298;2023-02-28T12:02:26;95409.63;;;12.54;79.30
6343;BME280;3204;42.698;23.298;2023-02-28T12:04:58;95394.38;;;12.45;79.55
6343;BME280;3204;42.698;23.298;2023-02-28T12:10:28;95401.44;;;12.46;78.66
6343;BME280;3204;42.698;23.298;2023-02-28T12:18:25;95403.34;;;12.45;77.20
6343;BME280;3204;42.698;23.298;2023-02-28T12:26:40;95396.16;;;12.49;78.17
6343;BME280;3204;42.698;23.298;2023-02-28T12:29:28;95397.59;;;12.47;76.50
6343;BME280;3204;42.698;23.298;2023-02-28T12:32:15;95409.38;;;12.20;76.79
6343;BME280;3204;42.698;23.298;2023-02-28T12:34:52;95402.63;;;12.18;77.96
6343;BME280;3204;42.698;23.298;2023-02-28T12:37:31;95382.41;;;12.32;77.97
6343;BME280;3204;42.698;23.298;2023-02-28T12:40:07;95389.56;;;12.64;76.50
6343;BME280;3204;42.698;23.298;2023-02-28T12:43:00;95385.34;;;12.88;76.56
6343;BME280;3204;42.698;23.298;2023-02-28T12:46:09;95381.59;;;12.76;76.64
6343;BME280;3204;42.698;23.298;2023-02-28T12:48:33;95394.94;;;12.86;76.14
6343;BME280;3204;42.698;23.298;2023-02-28T12:51:03;95399.78;;;12.89;75.33
6343;BME280;3204;42.698;23.298;2023-02-28T12:56:39;95386.75;;;12.77;76.50
6343;BME280;3204;42.698;23.298;2023-02-28T12:59:32;95395.69;;;12.78;75.84
6343;BME280;3204;42.698;23.298;2023-02-28T13:05:26;95391.56;;;12.80;75.80
6343;BME280;3204;42.698;23.298;2023-02-28T13:08:34;95382.59;;;12.58;76.62
6343;BME280;3204;42.698;23.298;2023-02-28T13:11:03;95387.19;;;12.71;76.43
6343;BME280;3204;42.698;23.298;2023-02-28T13:13:29;95391.81;;;12.70;76.00
6343;BME280;3204;42.698;23.298;2023-02-28T13:16:09;95390.75;;;12.80;76.07
6343;BME280;3204;42.698;23.298;2023-02-28T13:18:39;95386.66;;;12.91;75.58
6343;BME280;3204;42.698;23.298;2023-02-28T13:21:09;95385.19;;;12.85;75.66
6343;BME280;3204;42.698;23.298;2023-02-28T13:34:28;95379.13;;;12.88;74.88
6343;BME280;3204;42.698;23.298;2023-02-28T13:39:50;95378.03;;;12.67;75.69
6343;BME280;3204;42.698;23.298;2023-02-28T13:47:55;95376.25;;;12.93;75.15
6343;BME280;3204;42.698;23.298;2023-02-28T14:01:28;95358.38;;;12.70;75.25
6343;BME280;3204;42.698;23.298;2023-02-28T14:04:21;95359.50;;;12.47;75.47
6343;BME280;3204;42.698;23.298;2023-02-28T14:06:55;95358.50;;;12.43;75.82
6343;BME280;3204;42.698;23.298;2023-02-28T14:11:51;95368.78;;;12.46;76.22
6343;BME280;3204;42.698;23.298;2023-02-28T14:17:15;95359.63;;;12.20;77.39
6343;BME280;3204;42.698;23.298;2023-02-28T14:19:45;95358.97;;;12.01;77.43
6343;BME280;3204;42.698;23.298;2023-02-28T14:22:35;95359.63;;;11.98;77.69
6343;BME280;3204;42.698;23.298;2023-02-28T14:32:18;95364.13;;;12.02;78.41
6343;BME280;3204;42.698;23.298;2023-02-28T14:34:52;95368.53;;;11.76;79.03
6343;BME280;3204;42.698;23.298;2023-02-28T14:37:26;95375.47;;;11.69;79.44
6343;BME280;3204;42.698;23.298;2023-02-28T14:39:53;95368.25;;;11.64;79.95
6343;BME280;3204;42.698;23.298;2023-02-28T14:42:39;95349.53;;;11.63;80.61
6343;BME280;3204;42.698;23.298;2023-02-28T14:45:18;95362.59;;;11.74;80.06
6343;BME280;3204;42.698;23.298;2023-02-28T14:47:45;95371.75;;;11.78;80.10
6343;BME280;3204;42.698;23.298;2023-02-28T14:50:22;95367.44;;;11.64;80.47
6343;BME280;3204;42.698;23.298;2023-02-28T14:52:52;95365.41;;;11.56;80.75
6343;BME280;3204;42.698;23.298;2023-02-28T14:55:20;95362.50;;;11.52;81.38
6343;BME280;3204;42.698;23.298;2023-02-28T14:57:57;95357.97;;;11.61;80.97
6343;BME280;3204;42.698;23.298;2023-02-28T15:00:26;95363.13;;;11.63;81.01
6343;BME280;3204;42.698;23.298;2023-02-28T15:02:53;95369.06;;;11.65;81.52
6343;BME280;3204;42.698;23.298;2023-02-28T15:05:25;95365.41;;;11.56;81.66
6343;BME280;3204;42.698;23.298;2023-02-28T15:08:13;95363.63;;;11.38;82.05
6343;BME280;3204;42.698;23.298;2023-02-28T15:10:51;95358.91;;;11.30;82.61
6343;BME280;3204;42.698;23.298;2023-02-28T15:13:18;95351.47;;;11.35;82.92
6343;BME280;3204;42.698;23.298;2023-02-28T15:15:57;95354.88;;;11.41;82.76
6343;BME280;3204;42.698;23.298;2023-02-28T15:21:11;95345.63;;;11.42;82.67
6343;BME280;3204;42.698;23.298;2023-02-28T15:23:41;95352.75;;;11.38;82.51
6343;BME280;3204;42.698;23.298;2023-02-28T15:26:12;95359.69;;;11.44;82.80
6343;BME280;3204;42.698;23.298;2023-02-28T15:28:40;95371.47;;;11.39;82.06
6343;BME280;3204;42.698;23.298;2023-02-28T15:31:23;95374.69;;;11.28;82.98
6343;BME280;3204;42.698;23.298;2023-02-28T15:33:56;95374.19;;;11.26;83.24